Имени Алексея Леонова

Карта отелей и гостиниц, располагающихся рядом с аэропортом Имени Алексея Леонова :

Имени Алексея Леонова
Кемерово
Кемеровская область 55° 16' 12.1116" N, 86° 6' 27.2592" E
Код аэродрома ИКАО
UNEE
Код аэродрома RU
УНЕЕ
Координаты
N55.27003° E086.10757°
Превышение над уровнем моря
266
Основная полоса
05/23
Курс магнитный
046,2/226,2
Длина основной ВПП
3200
Ширина основной ВПП
60
Покрытие основной ВПП
Твёрдое (цементобетон)
Освещение ВПП
Постоянное
Тип: 
Аэродром
Класс аэродрома: 
Международный
Принадлежность: 
ГА
Статус: 
Действующий
Сайт: 
http://airkem.ru
E-mail аэродрома: 
aerokem@mail.ru
Страна: 
Россия
Регион: 
Кемеровская область
Город: 
Кемерово
Дополнительная информация: 
Допущен к эксплуатации ВС: DС-10, А310, А319, А320, А321, B737, В747, В757, В767, Ил-96, ИЛ-86, ИЛ-76, ИЛ-62М, ТУ-214, ТУ-204, ТУ-154, ТУ-134, ИЛ-18, АН-148, АН-124, АН-74, АН-30, АН-26, АН-24, АН-12, Як-42, Як-40, ATR-42, ВАе125 (Нawker125), ВАе146 (Avro146, RJ70, RJ85, RJ100, RJ115), CL-600 (или «Челленджер» 600 либо «Bombarder» или CRJ -100/200) и модификациями этих типов ВС, а так же другими типами ВС III-го и IV-го классов, вертолётами всех типов, включая вертолеты на полозковом (лыжном) шасси, а также ЕЭВС АОН. Другим категориям ВС - по разовым разрешениям администрации АП, Зап-Сиб МТУ ВТ ФАВТ и ФАВТ (Росавиации) при условии, что классификационные числа искусственных покрытий ИВПП, РД, перрона и МС позволяют производить эксплуатацию аэродрома ВС без ограничений, если выполняется условие: ACN?PCN. Ограничения вводятся по интенсивности движения ВС, при: -1.00>PCN/ACN>0,85 – 10 самолетовылетов в сутки; -0,85>PCN/ACN>0,80 – 2 самолетовылета в сутки; -0,80>PCN/ACN>0,75 – 1 самолетовылет в сутки. Собственник аэропорта Холдинговая компания "Сибирский Деловой Союз" (ХК "СДС"). Хозяйственное ведение и оперативное управление передано Обществу с ограниченной ответственностью "Международный Аэропорт Кемерово имени Алексея Архиповича Леонова" (ООО "МАК им. А.А. Леонова"). Военный индекс: XNEE / ЬНЕЕ.
Погода: 

Авиационная погода в аэропорту Имени Алексея Леонова

Регион: 
Погода METAR: 
UNEE 212300Z 11004MPS CAVOK 13/08 Q1008 R05/CLRD60 NOSIG RMK QFE733
Время наблюдения
2022-05-21T23:00:00Z
Температура C
13.0
Точка росы
8.0
Направление ветра
110
Скорость ветра (узлы)
8
Метео видимость
6.21
Облачность
CAVOK
Нижняя граница облачности (футы)
Явления погоды
Условия полета
VFR
Аэропорт подробнее: 


Найти трансфер

С помощью этой формы Вы можете найти трансфер из аэропорта Имени Алексея Леонова в город, аэропорт или вокзал:

Погода в аэропортах:

Авиационная погода в Волгограде

Регион: 
Погода METAR: 
URWW 212300Z 19004MPS 9000 -RA OVC005 11/11 Q1003 R24/290060 TEMPO 1000 TSRAGR BKN020CB RMK OBST OBSC
Время наблюдения
2022-05-21T23:00:00Z
Температура C
11.0
Точка росы
11.0
Направление ветра
190
Скорость ветра (узлы)
8
Метео видимость
5.59
Облачность
OVC
Нижняя граница облачности (футы)
500
Явления погоды
-RA
Условия полета
IFR
Аэропорт подробнее: 
OVC – сплошная облачность;
-RA - слабый дождь;

Авиационная погода в Брянске

Регион: 
Погода METAR: 
UUBP 212300Z AUTO 05003MPS 5000 -RA 09/09 Q0999 RMK QFE732/0976
Время наблюдения
2022-05-21T23:00:00Z
Температура C
9.0
Точка росы
9.0
Направление ветра
50
Скорость ветра (узлы)
6
Метео видимость
3.11
Облачность
Нижняя граница облачности (футы)
Явления погоды
-RA
Условия полета
Аэропорт подробнее: 
-RA - слабый дождь;

Авиационная погода в Ботсфьорде

Регион: 
Погода METAR: 
ENBS 212250Z AUTO 17007KT 9999 -RA ///042/// 02/01 Q1013
Время наблюдения
2022-05-21T22:50:00Z
Температура C
2.0
Точка росы
1.0
Направление ветра
170
Скорость ветра (узлы)
7
Метео видимость
6.21
Облачность
Нижняя граница облачности (футы)
Явления погоды
-RA
Условия полета
-RA - слабый дождь;

Авиационная погода в Белгороде

Регион: 
Погода METAR: 
UUOB 212300Z 03001MPS 3000 -SHRA BR OVC010CB 13/12 Q0997 R11/290060 NOSIG
Время наблюдения
2022-05-21T23:00:00Z
Температура C
13.0
Точка росы
12.0
Направление ветра
30
Скорость ветра (узлы)
2
Метео видимость
1.86
Облачность
OVC
Нижняя граница облачности (футы)
1000
Явления погоды
-SHRA BR
Условия полета
IFR
Аэропорт подробнее: 
OVC – сплошная облачность;
-SHRA - слабый ливневой дождь; BR – дымка (видимость от 1 до 9 км);